Latest Weather Observations for King Island Airport

IDT60801

Issued at 12:01 am EST Sunday 2 August 2015 (issued every 30 minutes, with the page automatically refreshed every 10 minutes)

About weather observations | Map of weather stations | Latest weather observations for TAS | Other Formats
Station Details ID: 098017 Name: KING ISLAND AIRPORT Lat: -39.88 Lon: 143.88 Height: 37.0 m
Data from the previous 72 hours. | See also: Recent months at King Island Airport
Date/Time
EST
Temp
°C
App
Temp
°C
Dew
Point
Rel
Hum
%
Delta-T
°C
Wind Press
QNH
hPa
Press
MSL
hPa
Rain
since 9 am
mm
Dir
 
Spd
km/h
Gust
km/h
Spd
kts
Gust
kts
02/12:00am 9.1 2.4 5.5 78 1.6 W 30 43 16 23 1012.3 1012.3 0.8
 
Date/Time
EST
Temp
°C
App
Temp
°C
Dew
Point
Rel
Hum
%
Delta-T
°C
Wind Press
QNH
hPa
Press
MSL
hPa
Rain
since 9 am
mm
Dir
 
Spd
km/h
Gust
km/h
Spd
kts
Gust
kts
01/11:32pm 8.8 2.5 5.9 82 1.3 WNW 28 50 15 27 1012.5 1012.5 0.8
01/11:30pm 8.7 2.9 6.2 84 1.1 WNW 26 35 14 19 1012.5 1012.5 0.8
01/11:02pm 9.1 2.6 6.5 84 1.2 WNW 30 57 16 31 1012.6 1012.6 0.6
01/11:00pm 9.0 2.9 6.4 84 1.2 WNW 28 37 15 20 1012.6 1012.6 0.6
01/10:30pm 9.1 2.0 5.3 77 1.7 W 32 41 17 22 1013.2 1013.2 0.4
01/10:00pm 9.4 2.0 3.8 68 2.4 WNW 32 41 17 22 1013.2 1013.2 0.0
01/09:30pm 9.4 1.8 3.8 68 2.4 WNW 33 46 18 25 1013.2 1013.2 0.0
01/09:03pm 8.8 0.8 4.0 72 2.1 WNW 35 54 19 29 1013.2 1013.2 0.0
01/09:00pm 8.8 0.0 3.8 71 2.2 WNW 39 54 21 29 1013.3 1013.3 0.0
01/08:53pm 9.0 1.0 3.8 70 2.3 WNW 35 54 19 29 1013.4 1013.4 0.0
01/08:30pm 9.2 2.0 4.8 74 2.0 WNW 32 43 17 23 1013.2 1013.2 0.0
01/08:00pm 8.6 1.1 4.2 74 1.9 WNW 33 46 18 25 1013.3 1013.3 0.0
01/07:44pm 9.4 3.0 5.0 74 2.0 WNW 28 50 15 27 1013.3 1013.3 0.0
01/07:30pm 9.3 2.7 4.1 70 2.3 WNW 28 37 15 20 1013.2 1013.2 0.0
01/07:00pm 9.4 2.5 2.7 63 2.9 WNW 28 44 15 24 1013.1 1013.1 0.0
01/06:30pm 9.3 1.5 1.7 59 3.2 WNW 32 48 17 26 1013.1 1013.1 0.0
01/06:00pm 9.3 1.6 2.4 62 2.9 WNW 32 44 17 24 1013.0 1013.0 0.0
01/05:30pm 9.2 1.5 2.1 61 3.0 W 32 43 17 23 1012.7 1012.7 0.0
01/05:00pm 9.1 1.3 2.7 64 2.7 WNW 33 50 18 27 1012.5 1012.5 0.0
01/04:30pm 9.6 1.7 2.2 60 3.1 W 33 48 18 26 1012.3 1012.3 0.0
01/04:00pm 10.0 2.7 2.6 60 3.2 W 30 41 16 22 1011.9 1011.9 0.0
01/03:30pm 9.3 2.2 3.5 67 2.5 WNW 30 46 16 25 1011.8 1011.8 0.0
01/03:23pm 9.5 2.7 3.3 65 2.7 W 28 46 15 25 1011.8 1011.8 0.0
01/03:00pm 10.3 2.6 2.4 58 3.4 W 32 43 17 23 1011.8 1011.8 0.0
01/02:30pm 9.9 2.1 1.5 56 3.5 W 32 43 17 23 1011.5 1011.5 0.0
01/02:00pm 10.1 3.2 2.5 59 3.2 WSW 28 41 15 22 1011.5 1011.5 0.0
01/01:38pm 10.3 2.9 1.9 56 3.5 W 30 48 16 26 1011.6 1011.6 0.0
01/01:30pm 10.5 4.0 2.8 59 3.3 W 26 41 14 22 1011.7 1011.7 0.0
01/01:00pm 9.2 1.7 4.2 71 2.2 WSW 33 44 18 24 1011.9 1011.9 0.0
01/12:38pm 11.0 3.2 1.8 53 3.9 W 32 54 17 29 1012.0 1012.0 0.0
01/12:30pm 10.5 2.5 1.6 54 3.7 W 33 48 18 26 1011.9 1011.9 0.0
01/12:00pm 10.2 2.7 3.5 63 2.9 W 32 41 17 22 1011.8 1011.8 0.0
01/11:30am 9.7 2.9 3.2 64 2.8 W 28 43 15 23 1011.8 1011.8 0.0
01/11:00am 9.1 1.0 3.1 66 2.6 WSW 35 54 19 29 1011.8 1011.8 0.0
01/10:50am 9.5 1.7 1.4 57 3.4 WSW 32 50 17 27 1011.7 1011.7 0.0
01/10:30am 9.9 2.2 2.5 60 3.2 W 32 46 17 25 1011.6 1011.6 0.0
01/10:05am 9.5 1.3 2.6 62 2.9 W 35 54 19 29 1011.4 1011.4 0.0
01/10:00am 9.6 1.9 2.5 61 3.0 W 32 46 17 25 1011.4 1011.4 0.0
01/09:30am 9.1 1.6 1.5 59 3.1 W 30 50 16 27 1011.1 1011.1 0.0
01/09:29am 9.0 2.0 1.9 61 3.0 W 28 50 15 27 1011.1 1011.1 0.0
01/09:00am 9.2 1.1 1.1 57 3.3 WSW 33 46 18 25 1010.3 1010.3 7.2
01/08:50am 8.8 0.7 1.0 58 3.2 WSW 33 52 18 28 1010.1 1010.1 7.2
01/08:30am 8.7 -0.3 0.2 55 3.4 WSW 37 52 20 28 1009.7 1009.8 7.2
01/08:00am 8.4 -0.2 -0.1 55 3.4 WSW 35 54 19 29 1009.0 1009.1 7.2
01/07:30am 8.5 -0.6 2.1 64 2.7 WSW 39 57 21 31 1008.2 1008.3 7.2
01/07:00am 8.9 -0.4 0.6 56 3.4 WSW 39 59 21 32 1007.5 1007.6 7.2
01/06:31am 9.1 1.1 3.7 69 2.3 WSW 35 56 19 30 1006.8 1006.9 7.2
01/06:30am 9.1 1.1 3.7 69 2.3 WSW 35 50 19 27 1006.8 1006.9 7.2
01/06:08am 8.6 0.3 4.4 75 1.8 WSW 37 56 20 30 1006.4 1006.5 7.2
01/06:00am 8.4 0.6 4.8 78 1.6 WSW 35 48 19 26 1006.3 1006.4 7.2
01/05:39am 8.0 -0.9 4.9 81 1.4 WSW 41 61 22 33 1005.9 1006.0 7.0
01/05:30am 8.3 -0.3 6.3 87 0.9 WSW 41 57 22 31 1005.8 1005.9 6.8
01/05:06am 8.5 0.4 6.8 89 0.8 WSW 39 57 21 31 1005.2 1005.3 6.2
01/05:00am 8.6 0.1 7.1 90 0.7 WSW 41 56 22 30 1005.1 1005.2 6.0
01/04:46am 8.8 2.1 7.3 90 0.7 WSW 32 50 17 27 1004.7 1004.8 5.6
01/04:30am 8.6 0.1 6.9 89 0.8 WSW 41 56 22 30 1004.5 1004.6 5.4
01/04:17am 8.4 0.0 7.2 92 0.6 WSW 41 54 22 29 1004.5 1004.6 5.0
01/04:11am 8.7 0.0 7.6 93 0.5 WSW 43 57 23 31 1004.6 1004.7 5.0
01/04:00am 8.5 0.9 7.4 93 0.5 W 37 52 20 28 1004.3 1004.4 5.0
01/03:54am 9.9 1.9 9.1 95 0.4 WNW 41 59 22 32 1003.9 1004.0 4.8
01/03:52am 10.0 1.5 9.2 95 0.4 WNW 44 59 24 32 1004.0 1004.1 4.6
01/03:45am 9.7 -0.8 8.8 94 0.4 NW 54 69 29 37 1004.1 1004.2 4.2
01/03:32am 10.3 -1.0 9.4 94 0.4 NW 59 78 32 42 1003.7 1003.8 2.8
01/03:30am 10.3 -1.4 9.4 94 0.4 NW 61 78 33 42 1003.6 1003.7 2.6
01/03:19am 10.4 -1.3 9.3 93 0.5 NNW 61 80 33 43 1003.7 1003.8 2.4
01/03:14am 10.3 -1.8 9.2 93 0.5 NNW 63 80 34 43 1003.7 1003.8 2.4
01/03:07am 10.2 -1.2 9.1 93 0.5 NNW 59 80 32 43 1003.8 1003.9 2.2
01/03:00am 10.3 -0.5 9.2 93 0.5 NNW 56 72 30 39 1003.8 1003.9 2.2
01/02:43am 10.2 0.1 8.8 91 0.7 NNW 52 70 28 38 1004.1 1004.2 1.6
01/02:30am 10.4 -0.6 8.5 88 0.9 NNW 56 70 30 38 1004.3 1004.4 1.0
01/02:14am 10.6 0.4 8.4 86 1.1 NNW 52 70 28 38 1004.6 1004.7 0.6
01/02:08am 10.5 -0.2 7.9 84 1.3 NNW 54 70 29 38 1004.8 1004.9 0.4
01/02:00am 10.8 0.1 7.9 82 1.4 NNW 54 69 29 37 1004.9 1005.0 0.2
01/01:30am 11.0 0.4 6.9 76 1.9 NNW 52 70 28 38 1005.1 1005.2 0.2
01/01:00am 11.0 0.7 6.6 74 2.1 NNW 50 69 27 37 1006.0 1006.1 0.2
01/12:30am 10.8 0.0 5.8 71 2.3 NNW 52 74 28 40 1006.4 1006.5 0.2
01/12:00am 10.8 0.4 6.0 72 2.2 NNW 50 69 27 37 1007.1 1007.2 0.2
 
Date/Time
EST
Temp
°C
App
Temp
°C
Dew
Point
Rel
Hum
%
Delta-T
°C
Wind Press
QNH
hPa
Press
MSL
hPa
Rain
since 9 am
mm
Dir
 
Spd
km/h
Gust
km/h
Spd
kts
Gust
kts
31/11:41pm 10.8 0.0 6.0 72 2.2 NNW 52 70 28 38 1007.5 1007.6 0.2
31/11:30pm 10.7 1.0 5.7 71 2.3 NNW 46 61 25 33 1007.6 1007.7 0.2
31/11:00pm 10.4 0.6 5.2 70 2.4 NNW 46 67 25 36 1008.2 1008.3 0.2
31/10:37pm 10.2 1.3 5.0 70 2.4 N 41 61 22 33 1009.0 1009.1 0.2
31/10:30pm 10.3 1.1 5.3 71 2.3 NNW 43 54 23 29 1009.2 1009.3 0.2
31/10:07pm 10.4 0.2 5.0 69 2.4 NNW 48 67 26 36 1009.5 1009.6 0.2
31/10:00pm 10.4 -0.1 5.6 72 2.2 NNW 50 63 27 34 1009.3 1009.4 0.2
31/09:40pm 10.3 0.4 4.7 68 2.5 N 46 65 25 35 1009.5 1009.6 0.2
31/09:30pm 10.3 0.4 4.9 69 2.4 NNW 46 63 25 34 1009.5 1009.6 0.2
31/09:04pm 10.3 -0.5 4.0 65 2.8 NNW 50 72 27 39 1010.6 1010.6 0.2
31/09:00pm 10.5 -0.2 4.4 66 2.7 NNW 50 65 27 35 1010.7 1010.7 0.2
31/08:56pm 10.4 0.4 4.5 67 2.6 NNW 46 65 25 35 1010.8 1010.8 0.2
31/08:30pm 10.2 0.2 4.4 67 2.6 NNW 46 57 25 31 1011.2 1011.2 0.2
31/08:00pm 10.1 0.0 3.8 65 2.8 NNW 46 61 25 33 1012.1 1012.1 0.2
31/07:50pm 10.0 0.9 4.2 67 2.6 NNW 41 61 22 33 1012.4 1012.4 0.2
31/07:30pm 9.9 1.3 4.5 69 2.4 NNW 39 52 21 28 1012.5 1012.5 0.2
31/07:00pm 9.8 1.0 3.8 66 2.6 NNW 39 50 21 27 1012.6 1012.6 0.2
31/06:30pm 9.8 1.7 3.5 65 2.7 NNW 35 48 19 26 1012.7 1012.7 0.2
31/06:00pm 9.9 1.2 4.3 68 2.5 NNW 39 48 21 26 1013.1 1013.1 0.2
31/05:30pm 9.9 0.9 4.3 68 2.5 NNW 41 54 22 29 1013.4 1013.4 0.2
31/05:00pm 10.1 1.5 4.7 69 2.4 NNW 39 52 21 28 1013.4 1013.4 0.2
31/04:30pm 10.2 1.1 4.1 66 2.7 NNW 41 52 22 28 1013.5 1013.5 0.2
31/04:00pm 10.3 1.3 4.7 68 2.5 NNW 41 52 22 28 1013.6 1013.6 0.2
31/03:30pm 10.3 1.5 5.7 73 2.1 NNW 41 52 22 28 1013.8 1013.8 0.2
31/03:00pm 9.6 2.6 6.0 78 1.7 NW 32 41 17 22 1014.1 1014.1 0.2
31/02:30pm 10.4 3.1 5.4 71 2.3 WNW 33 41 18 22 1014.5 1014.5 0.2
31/02:00pm 10.3 2.5 5.1 70 2.4 NW 35 46 19 25 1014.9 1014.9 0.2
31/01:30pm 10.4 2.0 5.6 72 2.2 NW 39 50 21 27 1015.5 1015.5 0.2
31/01:00pm 10.6 3.1 4.5 66 2.7 WNW 33 44 18 24 1015.8 1015.8 0.2
31/12:30pm 11.1 3.5 5.8 70 2.5 NW 35 43 19 23 1016.5 1016.5 0.2
31/12:00pm 10.2 3.7 6.7 79 1.6 WNW 30 39 16 21 1017.6 1017.6 0.2
31/11:30am 10.2 2.9 5.6 73 2.1 NW 33 41 18 22 1017.9 1017.9 0.0
31/11:00am 9.6 3.4 6.0 78 1.7 WNW 28 39 15 21 1018.2 1018.2 0.0
31/10:57am 9.5 2.5 6.0 79 1.6 NW 32 50 17 27 1018.2 1018.2 0.0
31/10:47am 9.4 2.3 5.4 76 1.8 WNW 32 48 17 26 1018.2 1018.2 0.0
31/10:30am 9.8 5.6 5.8 76 1.8 W 17 32 9 17 1018.2 1018.2 0.0
31/10:00am 8.8 2.0 5.0 77 1.7 W 30 39 16 21 1018.5 1018.5 0.0
31/09:30am 9.8 3.9 5.6 75 1.9 NW 26 32 14 17 1018.4 1018.4 0.0
31/09:00am 8.8 4.1 5.0 77 1.7 W 19 33 10 18 1018.4 1018.4 10.8
31/08:53am 8.3 1.0 4.7 78 1.6 WNW 32 50 17 27 1018.5 1018.5 10.8
31/08:48am 8.4 0.9 4.4 76 1.8 W 33 50 18 27 1018.5 1018.5 10.8
31/08:30am 8.7 3.6 2.9 67 2.5 W 19 28 10 15 1018.3 1018.3 10.8
31/08:00am 8.2 2.5 2.9 69 2.2 WNW 22 35 12 19 1018.1 1018.1 10.8
31/07:30am 8.1 2.4 3.0 70 2.2 W 22 32 12 17 1017.8 1017.8 10.8
31/07:00am 8.1 3.0 3.9 75 1.8 W 20 30 11 16 1017.5 1017.5 10.8
31/06:30am 8.1 3.2 4.3 77 1.7 W 19 28 10 15 1017.4 1017.4 10.8
31/06:00am 8.5 3.3 3.6 71 2.1 W 20 28 11 15 1017.4 1017.4 10.6
31/05:30am 8.7 3.1 3.3 69 2.3 W 22 33 12 18 1017.2 1017.2 10.6
31/05:00am 8.4 3.1 3.1 69 2.3 W 20 28 11 15 1017.2 1017.2 10.6
31/04:30am 8.6 2.5 2.8 67 2.5 WSW 24 35 13 19 1017.0 1017.0 10.6
31/04:00am 8.2 1.9 3.7 73 1.9 WSW 26 37 14 20 1017.0 1017.0 10.6
31/03:30am 8.6 1.9 1.5 61 2.9 WSW 26 33 14 18 1016.9 1016.9 10.6
31/03:00am 8.6 1.5 1.3 60 3.0 WSW 28 35 15 19 1016.8 1016.8 10.6
31/02:30am 8.3 3.7 3.8 73 1.9 WSW 17 22 9 12 1016.9 1016.9 10.6
31/02:00am 8.4 1.4 2.2 65 2.6 W 28 39 15 21 1016.9 1016.9 10.6
31/01:30am 8.4 1.2 3.1 69 2.3 SW 30 37 16 20 1016.8 1016.8 10.6
31/01:00am 8.5 2.6 3.8 72 2.0 WSW 24 39 13 21 1016.5 1016.5 10.6
31/12:30am 7.7 2.2 3.9 77 1.6 WSW 22 30 12 16 1016.4 1016.4 10.6
31/12:00am 8.2 0.8 4.0 75 1.8 SW 32 46 17 25 1016.4 1016.4 10.6
 
Date/Time
EST
Temp
°C
App
Temp
°C
Dew
Point
Rel
Hum
%
Delta-T
°C
Wind Press
QNH
hPa
Press
MSL
hPa
Rain
since 9 am
mm
Dir
 
Spd
km/h
Gust
km/h
Spd
kts
Gust
kts
30/11:30pm 8.5 1.2 2.7 67 2.4 SW 30 39 16 21 1015.9 1015.9 10.6
30/11:00pm 8.3 2.0 3.9 74 1.9 SW 26 35 14 19 1015.7 1015.7 10.6
30/10:30pm 7.7 -1.0 4.1 78 1.6 SW 39 50 21 27 1015.2 1015.2 10.6
30/10:18pm 8.6 1.4 4.8 77 1.7 SW 32 54 17 29 1015.1 1015.1 10.6
30/10:00pm 8.4 0.2 4.6 77 1.7 SW 37 54 20 29 1014.7 1014.7 10.6
30/09:58pm 8.7 0.9 4.9 77 1.7 SW 35 54 19 29 1014.6 1014.6 10.6
30/09:30pm 8.2 1.5 5.7 84 1.1 SW 30 46 16 25 1014.0 1014.0 10.6
30/09:24pm 7.6 0.8 5.2 85 1.1 SW 30 39 16 21 1013.9 1013.9 10.6
30/09:05pm 7.1 -1.3 3.9 80 1.4 SW 37 63 20 34 1013.9 1013.9 10.0
30/09:01pm 9.4 2.0 5.2 75 1.9 SW 33 52 18 28 1013.4 1013.4 8.4
30/09:00pm 9.5 1.8 5.3 75 1.9 SW 35 52 19 28 1013.3 1013.3 8.4
30/08:35pm 8.9 1.2 5.5 79 1.5 SW 35 54 19 29 1012.6 1012.6 8.4
30/08:30pm 9.2 0.9 5.9 80 1.5 SW 39 54 21 29 1012.4 1012.4 8.4
30/08:19pm 9.0 0.7 6.1 82 1.3 SW 39 52 21 28 1012.1 1012.1 8.4
30/08:01pm 7.3 -1.4 3.9 79 1.5 SW 39 69 21 37 1011.9 1011.9 8.2
30/08:00pm 8.2 -0.4 4.6 78 1.6 SW 39 69 21 37 1012.0 1012.0 7.6
30/07:30pm 9.8 2.3 6.3 79 1.6 WSW 35 48 19 26 1010.4 1010.4 6.8
30/07:00pm 9.1 2.2 7.4 89 0.8 W 33 46 18 25 1009.8 1009.9 6.8
30/06:30pm 9.2 2.4 7.5 89 0.8 W 33 48 18 26 1009.0 1009.1 6.0
30/06:03pm 9.1 1.2 7.7 91 0.7 W 39 57 21 31 1009.0 1009.1 5.6
30/06:00pm 9.2 0.5 7.6 90 0.8 W 43 57 23 31 1009.0 1009.1 5.4
30/05:50pm 9.1 0.1 7.4 89 0.8 W 44 63 24 34 1009.0 1009.1 4.8
30/05:45pm 9.3 0.4 7.6 89 0.8 W 44 61 24 33 1008.8 1008.9 4.6
30/05:30pm 9.6 -1.5 8.0 90 0.8 WNW 56 93 30 50 1008.3 1008.4 3.8
30/05:28pm 9.5 -1.8 7.8 89 0.8 WNW 57 93 31 50 1008.1 1008.2 3.6
30/05:25pm 9.7 -2.0 7.8 88 0.9 NW 59 93 32 50 1008.0 1008.1 3.4
30/05:22pm 10.5 -0.8 8.1 85 1.2 NW 57 89 31 48 1007.3 1007.4 3.0
30/05:00pm 11.2 0.0 8.4 83 1.4 NNW 57 80 31 43 1006.5 1006.6 2.0
30/04:44pm 11.1 0.0 8.7 85 1.2 NNW 57 78 31 42 1006.5 1006.6 2.0
30/04:36pm 10.9 -0.2 8.8 87 1.0 NNW 57 78 31 42 1006.6 1006.7 2.0
30/04:30pm 10.8 -0.2 9.1 89 0.8 NNW 57 74 31 40 1006.7 1006.8 2.0
30/04:04pm 10.2 -1.7 8.6 90 0.8 NNW 61 80 33 43 1006.9 1007.0 2.0
30/04:00pm 10.2 -1.7 8.6 90 0.8 NNW 61 78 33 42 1006.9 1007.0 2.0
30/03:49pm 10.1 -0.9 8.5 90 0.8 NNW 56 76 30 41 1007.1 1007.2 2.0
30/03:48pm 10.1 -0.9 8.5 90 0.8 NNW 56 72 30 39 1007.1 1007.2 1.8
30/03:45pm 10.1 -0.9 8.4 89 0.8 NNW 56 72 30 39 1007.1 1007.2 1.8
30/03:42pm 10.2 -0.4 8.5 89 0.8 NNW 54 72 29 39 1007.1 1007.2 1.8
30/03:30pm 10.1 -1.2 8.0 87 1.0 NNW 57 74 31 40 1007.3 1007.4 1.6
30/03:14pm 10.3 -0.7 6.8 79 1.7 NNW 54 74 29 40 1007.5 1007.6 1.0
30/03:10pm 10.6 0.4 6.9 78 1.8 NNW 50 69 27 37 1007.5 1007.6 0.8
30/03:00pm 11.5 2.0 6.8 73 2.2 NNW 46 63 25 34 1007.2 1007.3 0.6
30/02:42pm 11.4 1.9 6.5 72 2.3 NNW 46 65 25 35 1007.7 1007.8 0.6
30/02:30pm 11.2 2.1 6.9 75 2.0 NNW 44 59 24 32 1007.9 1008.0 0.6
30/02:03pm 10.6 0.2 6.2 74 2.1 NNW 50 69 27 37 1008.6 1008.7 0.6
30/02:00pm 10.7 -0.1 6.1 73 2.1 NNW 52 69 28 37 1008.6 1008.7 0.6
30/01:44pm 10.7 -0.2 5.7 71 2.3 NNW 52 70 28 38 1009.2 1009.3 0.6
30/01:30pm 10.9 1.0 6.5 74 2.1 NNW 48 61 26 33 1009.4 1009.5 0.6
30/01:02pm 10.7 -0.6 5.5 70 2.4 NNW 54 74 29 40 1009.9 1010.0 0.2
30/01:00pm 10.8 -0.5 5.6 70 2.4 NNW 54 70 29 38 1010.1 1010.1 0.2
30/12:36pm 11.1 1.3 5.2 67 2.7 N 46 65 25 35 1010.3 1010.3 0.2
30/12:30pm 11.2 0.7 5.7 69 2.5 N 50 65 27 35 1010.4 1010.4 0.2
30/12:03pm 10.6 0.6 6.2 74 2.1 N 48 67 26 36 1011.1 1011.1 0.2
30/12:00pm 10.4 0.0 6.2 75 2.0 N 50 67 27 36 1011.1 1011.1 0.2
30/11:30am 10.9 1.6 5.9 71 2.3 N 44 63 24 34 1011.9 1011.9 0.2
30/11:11am 10.2 1.6 6.7 79 1.6 N 41 59 22 32 1012.4 1012.4 0.2
30/11:00am 9.8 -0.1 6.7 81 1.5 N 48 57 26 31 1012.8 1012.8 0.2
30/10:30am 11.0 0.3 4.7 65 2.9 NNW 50 69 27 37 1013.5 1013.5 0.0
30/10:22am 11.3 1.1 5.4 67 2.7 NNW 48 67 26 36 1013.8 1013.8 0.0
30/10:00am 11.4 0.8 5.1 65 2.9 NNW 50 67 27 36 1014.1 1014.1 0.0
30/09:33am 11.5 0.4 4.7 63 3.1 NNW 52 70 28 38 1014.6 1014.6 0.0
30/09:30am 11.5 0.5 4.9 64 3.0 NNW 52 69 28 37 1014.6 1014.6 0.0
30/09:00am 11.2 1.3 4.9 65 2.9 N 46 67 25 36 1015.2 1015.2 0.2
30/08:31am 11.0 0.7 4.7 65 2.9 NNW 48 67 26 36 1015.7 1015.7 0.2
30/08:30am 11.0 0.3 4.7 65 2.9 NNW 50 67 27 36 1015.7 1015.7 0.2
30/08:28am 11.0 1.0 4.5 64 2.9 N 46 67 25 36 1015.7 1015.7 0.2
30/08:00am 10.7 0.8 4.8 67 2.7 N 46 63 25 34 1015.9 1015.9 0.2
30/07:39am 10.7 1.1 4.4 65 2.8 N 44 65 24 35 1016.0 1016.0 0.2
30/07:30am 10.6 1.1 4.7 67 2.7 N 44 56 24 30 1015.9 1015.9 0.2
30/07:00am 10.4 0.5 5.0 69 2.4 N 46 63 25 34 1016.1 1016.1 0.2
30/06:37am 10.5 0.5 4.4 66 2.7 NNW 46 65 25 35 1016.6 1016.6 0.2
30/06:30am 10.5 0.6 4.6 67 2.7 NNW 46 63 25 34 1016.7 1016.7 0.2
30/06:00am 10.4 1.1 5.2 70 2.4 NNW 43 56 23 30 1017.1 1017.1 0.2
30/05:30am 10.6 1.3 5.2 69 2.5 NNW 43 54 23 29 1017.6 1017.6 0.2
30/05:00am 10.6 1.3 5.2 69 2.5 NNW 43 57 23 31 1018.0 1018.0 0.2
30/04:30am 10.4 1.5 5.2 70 2.4 NNW 41 61 22 33 1018.5 1018.5 0.2
30/04:21am 10.4 1.1 5.2 70 2.4 NNW 43 61 23 33 1018.6 1018.6 0.2
30/04:00am 10.5 1.2 4.9 68 2.5 NNW 43 57 23 31 1018.7 1018.7 0.2
30/03:30am 10.5 1.2 5.1 69 2.5 NNW 43 57 23 31 1019.4 1019.4 0.2
30/03:00am 10.5 2.5 5.7 72 2.2 NNW 37 54 20 29 1019.8 1019.8 0.2
30/02:30am 10.7 2.3 5.5 70 2.4 NNW 39 54 21 29 1020.2 1020.2 0.2
30/02:00am 10.4 1.2 5.6 72 2.2 NNW 43 54 23 29 1020.4 1020.4 0.2
30/01:30am 10.4 2.0 5.6 72 2.2 NNW 39 54 21 29 1021.0 1021.0 0.2
30/01:00am 10.2 1.8 5.4 72 2.2 NNW 39 56 21 30 1021.5 1021.5 0.2
30/12:55am 10.4 2.8 5.6 72 2.2 NNW 35 56 19 30 1021.6 1021.6 0.2
30/12:30am 10.4 2.8 5.6 72 2.2 NNW 35 46 19 25 1021.9 1021.9 0.2
30/12:18am 10.4 2.8 5.6 72 2.2 NNW 35 54 19 29 1022.1 1022.1 0.2

Other Formats:

Comma delimited format used in spreadsheet applications
http://www.bom.gov.au/fwo/IDT60801/IDT60801.94850.axf

JavaScript Object Notation format (JSON) in row-major order
http://www.bom.gov.au/fwo/IDT60801/IDT60801.94850.json